sensor_id;sensor_type;location;lat;lon;timestamp;temperature;humidity
44121;DHT22;29783;52.504;13.478;2023-07-13T00:02:21;19.90;61.60
44121;DHT22;29783;52.504;13.478;2023-07-13T00:04:47;19.90;61.70
44121;DHT22;29783;52.504;13.478;2023-07-13T00:07:13;19.90;61.70
44121;DHT22;29783;52.504;13.478;2023-07-13T00:09:40;20.00;61.80
44121;DHT22;29783;52.504;13.478;2023-07-13T00:14:49;19.80;62.60
44121;DHT22;29783;52.504;13.478;2023-07-13T00:17:15;19.70;62.90
44121;DHT22;29783;52.504;13.478;2023-07-13T00:19:41;19.70;63.00
44121;DHT22;29783;52.504;13.478;2023-07-13T00:22:09;19.70;63.30
44121;DHT22;29783;52.504;13.478;2023-07-13T00:24:35;19.60;63.60
44121;DHT22;29783;52.504;13.478;2023-07-13T00:27:01;19.60;63.60
44121;DHT22;29783;52.504;13.478;2023-07-13T00:29:27;19.50;63.70
44121;DHT22;29783;52.504;13.478;2023-07-13T00:31:52;19.40;63.90
44121;DHT22;29783;52.504;13.478;2023-07-13T00:34:18;19.40;63.40
44121;DHT22;29783;52.504;13.478;2023-07-13T00:36:44;19.40;63.10
44121;DHT22;29783;52.504;13.478;2023-07-13T00:39:09;19.30;62.70
44121;DHT22;29783;52.504;13.478;2023-07-13T00:41:35;19.30;62.60
44121;DHT22;29783;52.504;13.478;2023-07-13T00:44:02;19.20;63.00
44121;DHT22;29783;52.504;13.478;2023-07-13T00:46:33;19.20;63.20
44121;DHT22;29783;52.504;13.478;2023-07-13T00:49:05;19.20;63.20
44121;DHT22;29783;52.504;13.478;2023-07-13T00:54:07;19.10;63.50
44121;DHT22;29783;52.504;13.478;2023-07-13T00:56:35;19.10;63.40
44121;DHT22;29783;52.504;13.478;2023-07-13T00:59:03;18.90;63.80
44121;DHT22;29783;52.504;13.478;2023-07-13T01:01:31;18.70;64.70
44121;DHT22;29783;52.504;13.478;2023-07-13T01:03:56;18.60;65.30
44121;DHT22;29783;52.504;13.478;2023-07-13T01:06:22;18.50;65.80
44121;DHT22;29783;52.504;13.478;2023-07-13T01:08:48;18.40;66.40
44121;DHT22;29783;52.504;13.478;2023-07-13T01:11:21;18.30;66.90
44121;DHT22;29783;52.504;13.478;2023-07-13T01:13:50;18.20;67.30
44121;DHT22;29783;52.504;13.478;2023-07-13T01:16:23;18.20;67.50
44121;DHT22;29783;52.504;13.478;2023-07-13T01:18:49;18.10;67.80
44121;DHT22;29783;52.504;13.478;2023-07-13T01:21:15;18.10;68.00
44121;DHT22;29783;52.504;13.478;2023-07-13T01:23:41;18.00;67.90
44121;DHT22;29783;52.504;13.478;2023-07-13T01:26:06;18.00;67.90
44121;DHT22;29783;52.504;13.478;2023-07-13T01:28:32;17.90;68.30
44121;DHT22;29783;52.504;13.478;2023-07-13T01:31:02;17.90;68.50
44121;DHT22;29783;52.504;13.478;2023-07-13T01:33:29;17.80;68.60
44121;DHT22;29783;52.504;13.478;2023-07-13T01:35:55;17.80;68.70
44121;DHT22;29783;52.504;13.478;2023-07-13T01:38:23;17.70;69.00
44121;DHT22;29783;52.504;13.478;2023-07-13T01:40:50;17.70;69.20
44121;DHT22;29783;52.504;13.478;2023-07-13T01:43:17;17.70;69.00
44121;DHT22;29783;52.504;13.478;2023-07-13T01:45:44;17.70;69.40
44121;DHT22;29783;52.504;13.478;2023-07-13T01:48:11;17.70;70.00
44121;DHT22;29783;52.504;13.478;2023-07-13T01:50:37;17.60;70.40
44121;DHT22;29783;52.504;13.478;2023-07-13T01:53:05;17.70;70.80
44121;DHT22;29783;52.504;13.478;2023-07-13T01:55:31;17.70;71.20
44121;DHT22;29783;52.504;13.478;2023-07-13T01:57:56;17.60;71.60
44121;DHT22;29783;52.504;13.478;2023-07-13T02:00:23;17.50;71.80
44121;DHT22;29783;52.504;13.478;2023-07-13T02:02:48;17.50;72.20
44121;DHT22;29783;52.504;13.478;2023-07-13T02:05:14;17.50;72.70
44121;DHT22;29783;52.504;13.478;2023-07-13T02:07:40;17.40;73.00
44121;DHT22;29783;52.504;13.478;2023-07-13T02:10:07;17.40;74.00
44121;DHT22;29783;52.504;13.478;2023-07-13T02:12:33;17.30;74.60
44121;DHT22;29783;52.504;13.478;2023-07-13T02:14:59;17.40;75.30
44121;DHT22;29783;52.504;13.478;2023-07-13T02:17:26;17.40;75.50
44121;DHT22;29783;52.504;13.478;2023-07-13T02:19:52;17.50;75.20
44121;DHT22;29783;52.504;13.478;2023-07-13T02:22:18;17.70;75.20
44121;DHT22;29783;52.504;13.478;2023-07-13T02:24:44;17.70;73.60
44121;DHT22;29783;52.504;13.478;2023-07-13T02:27:09;17.70;73.70
44121;DHT22;29783;52.504;13.478;2023-07-13T02:29:35;17.70;73.60
44121;DHT22;29783;52.504;13.478;2023-07-13T02:32:01;17.70;72.50
44121;DHT22;29783;52.504;13.478;2023-07-13T02:34:26;17.70;73.00
44121;DHT22;29783;52.504;13.478;2023-07-13T02:36:52;17.60;72.20
44121;DHT22;29783;52.504;13.478;2023-07-13T02:39:17;17.60;71.80
44121;DHT22;29783;52.504;13.478;2023-07-13T02:41:43;17.60;72.40
44121;DHT22;29783;52.504;13.478;2023-07-13T02:44:09;17.50;73.00
44121;DHT22;29783;52.504;13.478;2023-07-13T02:46:36;17.40;73.90
44121;DHT22;29783;52.504;13.478;2023-07-13T02:49:03;17.40;74.30
44121;DHT22;29783;52.504;13.478;2023-07-13T02:51:29;17.50;75.10
44121;DHT22;29783;52.504;13.478;2023-07-13T02:53:54;17.50;75.60
44121;DHT22;29783;52.504;13.478;2023-07-13T02:56:25;17.60;74.90
44121;DHT22;29783;52.504;13.478;2023-07-13T02:58:51;17.60;75.50
44121;DHT22;29783;52.504;13.478;2023-07-13T03:01:17;17.60;75.10
44121;DHT22;29783;52.504;13.478;2023-07-13T03:03:48;17.60;74.80
44121;DHT22;29783;52.504;13.478;2023-07-13T03:06:14;17.70;74.20
44121;DHT22;29783;52.504;13.478;2023-07-13T03:08:40;17.70;74.10
44121;DHT22;29783;52.504;13.478;2023-07-13T03:11:12;17.70;74.40
44121;DHT22;29783;52.504;13.478;2023-07-13T03:13:39;17.60;74.60
44121;DHT22;29783;52.504;13.478;2023-07-13T03:16:06;17.50;74.70
44121;DHT22;29783;52.504;13.478;2023-07-13T03:18:32;17.40;75.20
44121;DHT22;29783;52.504;13.478;2023-07-13T03:20:57;17.40;75.50
44121;DHT22;29783;52.504;13.478;2023-07-13T03:23:23;17.50;75.10
44121;DHT22;29783;52.504;13.478;2023-07-13T03:25:50;17.50;74.90
44121;DHT22;29783;52.504;13.478;2023-07-13T03:28:16;17.50;74.20
44121;DHT22;29783;52.504;13.478;2023-07-13T03:30:42;17.60;73.40
44121;DHT22;29783;52.504;13.478;2023-07-13T03:33:08;17.70;73.30
44121;DHT22;29783;52.504;13.478;2023-07-13T03:35:34;17.80;72.30
44121;DHT22;29783;52.504;13.478;2023-07-13T03:38:00;18.00;71.70
44121;DHT22;29783;52.504;13.478;2023-07-13T03:40:28;18.20;71.40
44121;DHT22;29783;52.504;13.478;2023-07-13T03:42:53;18.20;71.30
44121;DHT22;29783;52.504;13.478;2023-07-13T03:45:19;18.30;71.10
44121;DHT22;29783;52.504;13.478;2023-07-13T03:47:45;18.20;70.90
44121;DHT22;29783;52.504;13.478;2023-07-13T03:50:11;18.30;70.60
44121;DHT22;29783;52.504;13.478;2023-07-13T03:52:37;18.40;70.50
44121;DHT22;29783;52.504;13.478;2023-07-13T03:55:02;18.40;70.20
44121;DHT22;29783;52.504;13.478;2023-07-13T03:57:28;18.50;70.00
44121;DHT22;29783;52.504;13.478;2023-07-13T03:59:53;18.50;69.90
44121;DHT22;29783;52.504;13.478;2023-07-13T04:02:19;18.50;69.60
44121;DHT22;29783;52.504;13.478;2023-07-13T04:04:45;18.50;69.90
44121;DHT22;29783;52.504;13.478;2023-07-13T04:07:11;18.50;70.00
44121;DHT22;29783;52.504;13.478;2023-07-13T04:09:37;18.50;70.00
44121;DHT22;29783;52.504;13.478;2023-07-13T04:12:03;18.60;69.90
44121;DHT22;29783;52.504;13.478;2023-07-13T04:14:29;18.60;69.50
44121;DHT22;29783;52.504;13.478;2023-07-13T04:16:54;18.60;69.40
44121;DHT22;29783;52.504;13.478;2023-07-13T04:19:21;18.70;69.30
44121;DHT22;29783;52.504;13.478;2023-07-13T04:21:46;18.70;69.10
44121;DHT22;29783;52.504;13.478;2023-07-13T04:24:12;18.70;69.00
44121;DHT22;29783;52.504;13.478;2023-07-13T04:26:38;18.70;68.90
44121;DHT22;29783;52.504;13.478;2023-07-13T04:29:05;18.70;68.80
44121;DHT22;29783;52.504;13.478;2023-07-13T04:31:31;18.70;68.70
44121;DHT22;29783;52.504;13.478;2023-07-13T04:33:57;18.70;68.60
44121;DHT22;29783;52.504;13.478;2023-07-13T04:36:22;18.70;68.50
44121;DHT22;29783;52.504;13.478;2023-07-13T04:38:48;18.70;68.70
44121;DHT22;29783;52.504;13.478;2023-07-13T04:41:15;18.70;68.60
44121;DHT22;29783;52.504;13.478;2023-07-13T04:43:40;18.90;68.10
44121;DHT22;29783;52.504;13.478;2023-07-13T04:46:17;19.10;67.70
44121;DHT22;29783;52.504;13.478;2023-07-13T04:48:44;19.10;67.70
44121;DHT22;29783;52.504;13.478;2023-07-13T04:51:10;19.10;67.70
44121;DHT22;29783;52.504;13.478;2023-07-13T04:53:35;19.00;67.70
44121;DHT22;29783;52.504;13.478;2023-07-13T04:56:02;19.10;67.60
44121;DHT22;29783;52.504;13.478;2023-07-13T04:58:28;19.10;67.40
44121;DHT22;29783;52.504;13.478;2023-07-13T05:00:58;19.20;67.30
44121;DHT22;29783;52.504;13.478;2023-07-13T05:03:24;19.20;67.00
44121;DHT22;29783;52.504;13.478;2023-07-13T05:06:02;19.20;67.00
44121;DHT22;29783;52.504;13.478;2023-07-13T05:08:29;19.20;66.70
44121;DHT22;29783;52.504;13.478;2023-07-13T05:10:54;19.20;66.80
44121;DHT22;29783;52.504;13.478;2023-07-13T05:13:20;19.30;66.80
44121;DHT22;29783;52.504;13.478;2023-07-13T05:15:55;19.40;66.30
44121;DHT22;29783;52.504;13.478;2023-07-13T05:18:21;19.50;66.20
44121;DHT22;29783;52.504;13.478;2023-07-13T05:20:46;19.50;66.20
44121;DHT22;29783;52.504;13.478;2023-07-13T05:23:12;19.50;66.10
44121;DHT22;29783;52.504;13.478;2023-07-13T05:25:38;19.50;66.20
44121;DHT22;29783;52.504;13.478;2023-07-13T05:28:04;19.60;66.00
44121;DHT22;29783;52.504;13.478;2023-07-13T05:30:30;19.60;65.50
44121;DHT22;29783;52.504;13.478;2023-07-13T05:32:55;19.60;65.50
44121;DHT22;29783;52.504;13.478;2023-07-13T05:35:21;19.70;65.50
44121;DHT22;29783;52.504;13.478;2023-07-13T05:37:46;19.70;65.20
44121;DHT22;29783;52.504;13.478;2023-07-13T05:40:12;19.90;64.90
44121;DHT22;29783;52.504;13.478;2023-07-13T05:42:38;20.00;64.60
44121;DHT22;29783;52.504;13.478;2023-07-13T05:45:03;20.00;64.40
44121;DHT22;29783;52.504;13.478;2023-07-13T05:47:29;20.00;64.30
44121;DHT22;29783;52.504;13.478;2023-07-13T05:49:55;20.10;63.80
44121;DHT22;29783;52.504;13.478;2023-07-13T05:52:20;20.10;63.90
44121;DHT22;29783;52.504;13.478;2023-07-13T05:54:46;20.20;63.90
44121;DHT22;29783;52.504;13.478;2023-07-13T05:57:11;20.20;63.80
44121;DHT22;29783;52.504;13.478;2023-07-13T05:59:37;20.20;64.10
44121;DHT22;29783;52.504;13.478;2023-07-13T06:02:03;20.30;63.60
44121;DHT22;29783;52.504;13.478;2023-07-13T06:04:28;20.40;63.70
44121;DHT22;29783;52.504;13.478;2023-07-13T06:06:54;20.50;63.30
44121;DHT22;29783;52.504;13.478;2023-07-13T06:09:20;20.60;62.90
44121;DHT22;29783;52.504;13.478;2023-07-13T06:11:45;20.50;62.90
44121;DHT22;29783;52.504;13.478;2023-07-13T06:14:11;20.70;62.80
44121;DHT22;29783;52.504;13.478;2023-07-13T06:16:36;20.60;62.50
44121;DHT22;29783;52.504;13.478;2023-07-13T06:19:02;20.70;62.60
44121;DHT22;29783;52.504;13.478;2023-07-13T06:21:28;20.70;62.80
44121;DHT22;29783;52.504;13.478;2023-07-13T06:23:53;20.70;62.70
44121;DHT22;29783;52.504;13.478;2023-07-13T06:26:20;20.70;62.40
44121;DHT22;29783;52.504;13.478;2023-07-13T06:28:46;20.80;62.30
44121;DHT22;29783;52.504;13.478;2023-07-13T06:31:13;20.80;62.60
44121;DHT22;29783;52.504;13.478;2023-07-13T06:33:39;20.80;62.20
44121;DHT22;29783;52.504;13.478;2023-07-13T06:36:05;20.80;62.20
44121;DHT22;29783;52.504;13.478;2023-07-13T06:38:33;20.90;62.50
44121;DHT22;29783;52.504;13.478;2023-07-13T06:40:59;21.10;61.30
44121;DHT22;29783;52.504;13.478;2023-07-13T06:43:25;21.10;61.40
44121;DHT22;29783;52.504;13.478;2023-07-13T06:45:54;21.20;61.40
44121;DHT22;29783;52.504;13.478;2023-07-13T06:48:19;21.10;61.30
44121;DHT22;29783;52.504;13.478;2023-07-13T06:50:48;21.20;61.20
44121;DHT22;29783;52.504;13.478;2023-07-13T06:53:15;21.20;60.80
44121;DHT22;29783;52.504;13.478;2023-07-13T06:55:43;21.30;60.60
44121;DHT22;29783;52.504;13.478;2023-07-13T06:58:09;21.40;60.30
44121;DHT22;29783;52.504;13.478;2023-07-13T07:00:34;21.60;59.70
44121;DHT22;29783;52.504;13.478;2023-07-13T07:03:00;21.70;59.20
44121;DHT22;29783;52.504;13.478;2023-07-13T07:05:25;21.60;58.40
44121;DHT22;29783;52.504;13.478;2023-07-13T07:07:53;21.60;57.80
44121;DHT22;29783;52.504;13.478;2023-07-13T07:10:19;21.70;57.70
44121;DHT22;29783;52.504;13.478;2023-07-13T07:12:46;21.90;57.50
44121;DHT22;29783;52.504;13.478;2023-07-13T07:15:11;21.90;56.20
44121;DHT22;29783;52.504;13.478;2023-07-13T07:17:37;21.70;56.10
44121;DHT22;29783;52.504;13.478;2023-07-13T07:20:03;21.80;55.80
44121;DHT22;29783;52.504;13.478;2023-07-13T07:22:30;21.70;55.60
44121;DHT22;29783;52.504;13.478;2023-07-13T07:24:56;21.80;54.80
44121;DHT22;29783;52.504;13.478;2023-07-13T07:27:23;22.00;54.90
44121;DHT22;29783;52.504;13.478;2023-07-13T07:29:49;22.10;55.10
44121;DHT22;29783;52.504;13.478;2023-07-13T07:32:14;22.20;55.30
44121;DHT22;29783;52.504;13.478;2023-07-13T07:34:40;22.30;55.90
44121;DHT22;29783;52.504;13.478;2023-07-13T07:37:05;22.40;55.00
44121;DHT22;29783;52.504;13.478;2023-07-13T07:39:31;22.90;53.70
44121;DHT22;29783;52.504;13.478;2023-07-13T07:41:57;23.40;50.70
44121;DHT22;29783;52.504;13.478;2023-07-13T07:44:23;23.90;48.80
44121;DHT22;29783;52.504;13.478;2023-07-13T07:46:49;24.10;47.30
44121;DHT22;29783;52.504;13.478;2023-07-13T07:49:15;24.00;47.80
44121;DHT22;29783;52.504;13.478;2023-07-13T07:51:40;24.00;48.50
44121;DHT22;29783;52.504;13.478;2023-07-13T07:54:06;24.10;47.50
44121;DHT22;29783;52.504;13.478;2023-07-13T07:56:32;23.70;49.00
44121;DHT22;29783;52.504;13.478;2023-07-13T07:58:58;23.70;49.90
44121;DHT22;29783;52.504;13.478;2023-07-13T08:01:24;24.20;49.10
44121;DHT22;29783;52.504;13.478;2023-07-13T08:03:50;24.50;48.80
44121;DHT22;29783;52.504;13.478;2023-07-13T08:06:16;24.20;48.40
44121;DHT22;29783;52.504;13.478;2023-07-13T08:08:41;24.10;48.80
44121;DHT22;29783;52.504;13.478;2023-07-13T08:11:08;24.20;48.70
44121;DHT22;29783;52.504;13.478;2023-07-13T08:13:34;24.30;48.60
44121;DHT22;29783;52.504;13.478;2023-07-13T08:16:00;24.50;47.90
44121;DHT22;29783;52.504;13.478;2023-07-13T08:18:26;24.40;47.80
44121;DHT22;29783;52.504;13.478;2023-07-13T08:20:53;24.40;48.70
44121;DHT22;29783;52.504;13.478;2023-07-13T08:23:22;24.50;47.80
44121;DHT22;29783;52.504;13.478;2023-07-13T08:25:54;24.70;47.90
44121;DHT22;29783;52.504;13.478;2023-07-13T08:28:21;25.10;46.90
44121;DHT22;29783;52.504;13.478;2023-07-13T08:30:47;25.00;45.90
44121;DHT22;29783;52.504;13.478;2023-07-13T08:33:15;24.90;46.40
44121;DHT22;29783;52.504;13.478;2023-07-13T08:35:42;24.90;47.00
44121;DHT22;29783;52.504;13.478;2023-07-13T08:38:10;24.90;46.20
44121;DHT22;29783;52.504;13.478;2023-07-13T08:40:36;24.70;45.80
44121;DHT22;29783;52.504;13.478;2023-07-13T08:43:01;24.60;45.70
44121;DHT22;29783;52.504;13.478;2023-07-13T08:48:39;24.60;45.90
44121;DHT22;29783;52.504;13.478;2023-07-13T08:53:46;24.50;46.90
44121;DHT22;29783;52.504;13.478;2023-07-13T08:56:24;24.40;47.50
44121;DHT22;29783;52.504;13.478;2023-07-13T08:59:00;24.50;47.60
44121;DHT22;29783;52.504;13.478;2023-07-13T09:04:17;24.30;48.20
44121;DHT22;29783;52.504;13.478;2023-07-13T09:12:40;23.40;49.80
44121;DHT22;29783;52.504;13.478;2023-07-13T09:15:29;23.50;49.90
44121;DHT22;29783;52.504;13.478;2023-07-13T09:18:11;23.50;50.00
44121;DHT22;29783;52.504;13.478;2023-07-13T09:20:49;23.50;49.40
44121;DHT22;29783;52.504;13.478;2023-07-13T09:23:19;23.70;48.90
44121;DHT22;29783;52.504;13.478;2023-07-13T09:25:48;23.70;47.70
44121;DHT22;29783;52.504;13.478;2023-07-13T09:28:24;23.80;47.80
44121;DHT22;29783;52.504;13.478;2023-07-13T09:31:07;24.00;45.80
44121;DHT22;29783;52.504;13.478;2023-07-13T09:33:35;23.90;45.20
44121;DHT22;29783;52.504;13.478;2023-07-13T09:36:05;23.90;45.40
44121;DHT22;29783;52.504;13.478;2023-07-13T09:38:43;24.00;44.60
44121;DHT22;29783;52.504;13.478;2023-07-13T09:46:45;24.40;45.10
44121;DHT22;29783;52.504;13.478;2023-07-13T09:49:11;24.40;44.60
44121;DHT22;29783;52.504;13.478;2023-07-13T09:51:43;24.40;43.60
44121;DHT22;29783;52.504;13.478;2023-07-13T09:54:27;24.40;44.40
44121;DHT22;29783;52.504;13.478;2023-07-13T09:56:58;24.40;42.30
44121;DHT22;29783;52.504;13.478;2023-07-13T09:59:37;24.40;42.10
44121;DHT22;29783;52.504;13.478;2023-07-13T10:07:28;24.70;42.70
44121;DHT22;29783;52.504;13.478;2023-07-13T10:09:55;24.80;41.50
44121;DHT22;29783;52.504;13.478;2023-07-13T10:12:23;24.60;42.20
44121;DHT22;29783;52.504;13.478;2023-07-13T10:14:58;24.60;42.40
44121;DHT22;29783;52.504;13.478;2023-07-13T10:17:32;24.60;42.40
44121;DHT22;29783;52.504;13.478;2023-07-13T10:20:03;24.30;43.00
44121;DHT22;29783;52.504;13.478;2023-07-13T10:23:02;24.20;44.00
44121;DHT22;29783;52.504;13.478;2023-07-13T10:25:33;24.40;44.00
44121;DHT22;29783;52.504;13.478;2023-07-13T10:30:43;25.10;42.90
44121;DHT22;29783;52.504;13.478;2023-07-13T10:33:13;25.50;42.00
44121;DHT22;29783;52.504;13.478;2023-07-13T10:35:42;25.50;40.70
44121;DHT22;29783;52.504;13.478;2023-07-13T10:38:18;25.30;40.80
44121;DHT22;29783;52.504;13.478;2023-07-13T10:41:02;25.10;41.60
44121;DHT22;29783;52.504;13.478;2023-07-13T10:43:37;24.80;42.40
44121;DHT22;29783;52.504;13.478;2023-07-13T10:46:06;25.00;42.90
44121;DHT22;29783;52.504;13.478;2023-07-13T10:48:34;25.20;40.90
44121;DHT22;29783;52.504;13.478;2023-07-13T10:51:04;25.10;40.60
44121;DHT22;29783;52.504;13.478;2023-07-13T10:53:34;25.00;40.10
44121;DHT22;29783;52.504;13.478;2023-07-13T10:56:19;24.70;40.70
44121;DHT22;29783;52.504;13.478;2023-07-13T10:59:46;24.70;40.30
44121;DHT22;29783;52.504;13.478;2023-07-13T11:01:56;24.50;40.10
44121;DHT22;29783;52.504;13.478;2023-07-13T11:04:22;24.40;40.20
44121;DHT22;29783;52.504;13.478;2023-07-13T11:06:56;24.70;40.70
44121;DHT22;29783;52.504;13.478;2023-07-13T11:09:39;25.00;40.40
44121;DHT22;29783;52.504;13.478;2023-07-13T11:12:26;25.20;40.30
44121;DHT22;29783;52.504;13.478;2023-07-13T11:22:52;25.40;39.40
44121;DHT22;29783;52.504;13.478;2023-07-13T11:30:39;25.80;38.10
44121;DHT22;29783;52.504;13.478;2023-07-13T11:35:46;25.80;36.80
44121;DHT22;29783;52.504;13.478;2023-07-13T11:38:24;25.70;37.00
44121;DHT22;29783;52.504;13.478;2023-07-13T11:40:54;25.90;37.00
44121;DHT22;29783;52.504;13.478;2023-07-13T11:43:20;26.10;37.50
44121;DHT22;29783;52.504;13.478;2023-07-13T11:45:49;26.20;37.40
44121;DHT22;29783;52.504;13.478;2023-07-13T11:48:23;26.50;36.80
44121;DHT22;29783;52.504;13.478;2023-07-13T11:50:51;26.30;35.90
44121;DHT22;29783;52.504;13.478;2023-07-13T11:53:18;26.10;36.60
44121;DHT22;29783;52.504;13.478;2023-07-13T11:55:44;25.90;37.90
44121;DHT22;29783;52.504;13.478;2023-07-13T11:58:19;26.10;38.10
44121;DHT22;29783;52.504;13.478;2023-07-13T12:00:46;26.10;38.30
44121;DHT22;29783;52.504;13.478;2023-07-13T12:03:19;26.20;37.20
44121;DHT22;29783;52.504;13.478;2023-07-13T12:06:02;26.50;37.70
44121;DHT22;29783;52.504;13.478;2023-07-13T12:08:30;26.90;38.20
44121;DHT22;29783;52.504;13.478;2023-07-13T12:11:04;26.80;37.30
44121;DHT22;29783;52.504;13.478;2023-07-13T12:13:37;26.90;35.90
44121;DHT22;29783;52.504;13.478;2023-07-13T12:16:25;27.20;34.60
44121;DHT22;29783;52.504;13.478;2023-07-13T12:18:53;28.00;34.00
44121;DHT22;29783;52.504;13.478;2023-07-13T12:21:29;28.40;33.40
44121;DHT22;29783;52.504;13.478;2023-07-13T12:23:55;28.60;33.10
44121;DHT22;29783;52.504;13.478;2023-07-13T12:26:21;29.80;31.40
44121;DHT22;29783;52.504;13.478;2023-07-13T12:28:52;30.70;30.10
44121;DHT22;29783;52.504;13.478;2023-07-13T12:31:35;30.10;31.40
44121;DHT22;29783;52.504;13.478;2023-07-13T12:36:35;30.40;31.40
44121;DHT22;29783;52.504;13.478;2023-07-13T12:39:15;29.60;32.20
44121;DHT22;29783;52.504;13.478;2023-07-13T12:41:41;29.70;32.10
44121;DHT22;29783;52.504;13.478;2023-07-13T12:44:12;29.90;32.00
44121;DHT22;29783;52.504;13.478;2023-07-13T12:46:39;30.10;31.00
44121;DHT22;29783;52.504;13.478;2023-07-13T12:49:07;28.70;32.60
44121;DHT22;29783;52.504;13.478;2023-07-13T12:51:33;28.60;33.10
44121;DHT22;29783;52.504;13.478;2023-07-13T12:54:18;30.20;31.00
44121;DHT22;29783;52.504;13.478;2023-07-13T12:56:45;31.40;29.90
44121;DHT22;29783;52.504;13.478;2023-07-13T12:59:19;31.20;29.90
44121;DHT22;29783;52.504;13.478;2023-07-13T13:01:46;32.40;28.70
44121;DHT22;29783;52.504;13.478;2023-07-13T13:04:12;33.30;27.30
44121;DHT22;29783;52.504;13.478;2023-07-13T13:06:39;33.40;27.10
44121;DHT22;29783;52.504;13.478;2023-07-13T13:09:12;33.70;26.30
44121;DHT22;29783;52.504;13.478;2023-07-13T13:11:39;33.70;26.20
44121;DHT22;29783;52.504;13.478;2023-07-13T13:14:06;33.00;27.10
44121;DHT22;29783;52.504;13.478;2023-07-13T13:16:34;31.80;28.60
44121;DHT22;29783;52.504;13.478;2023-07-13T13:19:22;31.10;28.60
44121;DHT22;29783;52.504;13.478;2023-07-13T13:21:50;30.50;29.40
44121;DHT22;29783;52.504;13.478;2023-07-13T13:24:20;30.40;29.60
44121;DHT22;29783;52.504;13.478;2023-07-13T13:26:47;30.60;29.30
44121;DHT22;29783;52.504;13.478;2023-07-13T13:29:22;30.60;29.60
44121;DHT22;29783;52.504;13.478;2023-07-13T13:31:51;31.20;29.20
44121;DHT22;29783;52.504;13.478;2023-07-13T13:34:25;31.80;28.40
44121;DHT22;29783;52.504;13.478;2023-07-13T13:36:52;32.90;27.30
44121;DHT22;29783;52.504;13.478;2023-07-13T13:39:32;33.20;26.70
44121;DHT22;29783;52.504;13.478;2023-07-13T13:41:59;34.10;26.30
44121;DHT22;29783;52.504;13.478;2023-07-13T13:44:24;34.50;26.20
44121;DHT22;29783;52.504;13.478;2023-07-13T13:46:52;34.50;25.80
44121;DHT22;29783;52.504;13.478;2023-07-13T13:49:22;33.90;26.10
44121;DHT22;29783;52.504;13.478;2023-07-13T13:51:48;33.40;26.80
44121;DHT22;29783;52.504;13.478;2023-07-13T13:54:14;33.40;26.70
44121;DHT22;29783;52.504;13.478;2023-07-13T13:56:49;33.40;26.10
44121;DHT22;29783;52.504;13.478;2023-07-13T13:59:15;33.40;25.40
44121;DHT22;29783;52.504;13.478;2023-07-13T14:01:43;33.30;26.30
44121;DHT22;29783;52.504;13.478;2023-07-13T14:04:15;32.10;28.10
44121;DHT22;29783;52.504;13.478;2023-07-13T14:06:41;31.90;28.50
44121;DHT22;29783;52.504;13.478;2023-07-13T14:09:11;31.80;29.00
44121;DHT22;29783;52.504;13.478;2023-07-13T14:11:37;33.00;27.60
44121;DHT22;29783;52.504;13.478;2023-07-13T14:14:04;33.40;26.50
44121;DHT22;29783;52.504;13.478;2023-07-13T14:16:32;33.90;26.10
44121;DHT22;29783;52.504;13.478;2023-07-13T14:18:58;34.00;26.00
44121;DHT22;29783;52.504;13.478;2023-07-13T14:21:26;34.10;26.10
44121;DHT22;29783;52.504;13.478;2023-07-13T14:23:52;34.30;25.50
44121;DHT22;29783;52.504;13.478;2023-07-13T14:26:21;33.80;25.90
44121;DHT22;29783;52.504;13.478;2023-07-13T14:28:50;32.60;26.70
44121;DHT22;29783;52.504;13.478;2023-07-13T14:31:17;32.40;26.50
44121;DHT22;29783;52.504;13.478;2023-07-13T14:33:44;32.40;26.90
44121;DHT22;29783;52.504;13.478;2023-07-13T14:36:40;32.10;27.90
44121;DHT22;29783;52.504;13.478;2023-07-13T14:39:16;31.20;29.10
44121;DHT22;29783;52.504;13.478;2023-07-13T14:41:43;30.60;30.40
44121;DHT22;29783;52.504;13.478;2023-07-13T14:44:13;30.50;30.50
44121;DHT22;29783;52.504;13.478;2023-07-13T14:46:39;30.70;30.50
44121;DHT22;29783;52.504;13.478;2023-07-13T14:49:20;32.00;28.50
44121;DHT22;29783;52.504;13.478;2023-07-13T14:51:47;32.20;28.00
44121;DHT22;29783;52.504;13.478;2023-07-13T14:54:13;33.00;27.40
44121;DHT22;29783;52.504;13.478;2023-07-13T14:56:38;33.60;26.60
44121;DHT22;29783;52.504;13.478;2023-07-13T14:59:04;33.40;26.80
44121;DHT22;29783;52.504;13.478;2023-07-13T15:01:30;33.90;26.50
44121;DHT22;29783;52.504;13.478;2023-07-13T15:03:57;33.80;26.50
44121;DHT22;29783;52.504;13.478;2023-07-13T15:06:23;33.70;26.40
44121;DHT22;29783;52.504;13.478;2023-07-13T15:08:50;33.20;26.70
44121;DHT22;29783;52.504;13.478;2023-07-13T15:11:16;33.20;26.40
44121;DHT22;29783;52.504;13.478;2023-07-13T15:13:43;33.20;26.70
44121;DHT22;29783;52.504;13.478;2023-07-13T15:16:24;33.00;26.80
44121;DHT22;29783;52.504;13.478;2023-07-13T15:18:51;33.00;26.70
44121;DHT22;29783;52.504;13.478;2023-07-13T15:21:23;32.90;27.00
44121;DHT22;29783;52.504;13.478;2023-07-13T15:23:49;32.70;26.80
44121;DHT22;29783;52.504;13.478;2023-07-13T15:26:17;33.30;26.40
44121;DHT22;29783;52.504;13.478;2023-07-13T15:28:44;33.90;25.80
44121;DHT22;29783;52.504;13.478;2023-07-13T15:31:20;34.30;25.30
44121;DHT22;29783;52.504;13.478;2023-07-13T15:33:46;34.90;24.20
44121;DHT22;29783;52.504;13.478;2023-07-13T15:36:14;34.70;23.80
44121;DHT22;29783;52.504;13.478;2023-07-13T15:38:40;34.10;24.50
44121;DHT22;29783;52.504;13.478;2023-07-13T15:41:27;34.10;24.60
44121;DHT22;29783;52.504;13.478;2023-07-13T15:43:56;34.80;24.00
44121;DHT22;29783;52.504;13.478;2023-07-13T15:46:26;34.70;23.70
44121;DHT22;29783;52.504;13.478;2023-07-13T15:48:54;34.30;24.20
44121;DHT22;29783;52.504;13.478;2023-07-13T15:51:27;33.80;24.80
44121;DHT22;29783;52.504;13.478;2023-07-13T15:53:56;33.70;24.90
44121;DHT22;29783;52.504;13.478;2023-07-13T15:56:26;33.70;25.20
44121;DHT22;29783;52.504;13.478;2023-07-13T15:58:53;33.90;25.00
44121;DHT22;29783;52.504;13.478;2023-07-13T16:01:19;33.90;25.00
44121;DHT22;29783;52.504;13.478;2023-07-13T16:03:46;34.00;25.00
44121;DHT22;29783;52.504;13.478;2023-07-13T16:06:33;34.30;24.70
44121;DHT22;29783;52.504;13.478;2023-07-13T16:09:01;33.30;25.90
44121;DHT22;29783;52.504;13.478;2023-07-13T16:11:32;33.20;26.00
44121;DHT22;29783;52.504;13.478;2023-07-13T16:13:58;33.20;25.90
44121;DHT22;29783;52.504;13.478;2023-07-13T16:16:29;33.20;26.10